createdAt,value
2019-01-15T00:02:08.027Z,3.37
2019-01-15T00:04:36.405Z,3.67
2019-01-15T00:07:04.737Z,4.00
2019-01-15T00:09:33.613Z,3.05
2019-01-15T00:12:07.835Z,5.10
2019-01-15T00:14:32.461Z,3.37
2019-01-15T00:17:00.798Z,3.83
2019-01-15T00:19:29.144Z,3.00
2019-01-15T00:21:57.459Z,3.30
2019-01-15T00:24:25.814Z,3.03
2019-01-15T00:26:54.132Z,3.03
2019-01-15T00:29:22.489Z,3.40
2019-01-15T00:31:50.862Z,4.05
2019-01-15T00:34:19.199Z,3.00
2019-01-15T00:36:47.535Z,2.90
2019-01-15T00:39:15.835Z,3.35
2019-01-15T00:41:44.291Z,5.03
2019-01-15T00:44:12.905Z,3.40
2019-01-15T00:46:41.266Z,2.60
2019-01-15T00:49:09.825Z,3.20
2019-01-15T00:51:38.214Z,3.00
2019-01-15T00:54:06.601Z,2.60
2019-01-15T00:56:34.953Z,2.90
2019-01-15T00:59:03.313Z,2.70
2019-01-15T01:01:31.740Z,2.60
2019-01-15T01:04:00.099Z,2.70
2019-01-15T01:06:28.534Z,2.60
2019-01-15T01:08:56.865Z,3.40
2019-01-15T01:11:25.302Z,2.47
2019-01-15T01:13:53.690Z,2.80
2019-01-15T01:16:22.113Z,3.37
2019-01-15T01:18:50.429Z,2.63
2019-01-15T01:21:18.770Z,2.53
2019-01-15T01:23:47.080Z,2.50
2019-01-15T01:26:15.437Z,2.90
2019-01-15T01:28:43.738Z,2.60
2019-01-15T01:31:12.279Z,2.70
2019-01-15T01:33:40.636Z,2.67
2019-01-15T01:36:08.971Z,2.30
2019-01-15T01:38:37.345Z,2.87
2019-01-15T01:41:05.729Z,2.83
2019-01-15T01:43:34.153Z,2.53
2019-01-15T01:46:02.453Z,2.40
2019-01-15T01:48:30.794Z,3.40
2019-01-15T01:50:59.157Z,2.80
2019-01-15T01:53:27.521Z,3.10
2019-01-15T01:55:55.873Z,2.70
2019-01-15T01:58:24.217Z,2.40
2019-01-15T02:00:52.628Z,3.00
2019-01-15T02:03:20.994Z,2.80
2019-01-15T02:05:49.325Z,2.40
2019-01-15T02:08:17.674Z,2.13
2019-01-15T02:10:46.064Z,2.30
2019-01-15T02:13:14.581Z,1.93
2019-01-15T02:15:42.924Z,2.13
2019-01-15T02:18:11.902Z,2.00
2019-01-15T02:20:40.371Z,2.63
2019-01-15T02:23:08.698Z,2.77
2019-01-15T02:25:37.056Z,1.67
2019-01-15T02:28:05.414Z,2.30
2019-01-15T02:30:33.753Z,2.43
2019-01-15T02:33:02.291Z,3.53
2019-01-15T02:35:30.609Z,2.17
2019-01-15T02:37:58.948Z,2.10
2019-01-15T02:40:27.258Z,1.87
2019-01-15T02:42:55.620Z,2.20
2019-01-15T02:45:23.979Z,1.60
2019-01-15T02:47:52.340Z,1.80
2019-01-15T02:50:21.027Z,1.60
2019-01-15T02:52:49.462Z,1.70
2019-01-15T02:55:17.959Z,1.57
2019-01-15T02:57:46.286Z,1.77
2019-01-15T03:00:19.222Z,1.50
2019-01-15T03:02:47.609Z,2.43
2019-01-15T03:05:16.506Z,1.70
2019-01-15T03:07:44.898Z,1.98
2019-01-15T03:10:15.581Z,1.80
2019-01-15T03:12:45.999Z,2.03
2019-01-15T03:15:15.219Z,1.87
2019-01-15T03:17:43.607Z,1.80
2019-01-15T03:20:14.722Z,1.83
2019-01-15T03:22:43.170Z,1.73
2019-01-15T03:25:12.505Z,1.82
2019-01-15T03:27:40.812Z,1.97
2019-01-15T03:30:12.365Z,2.20
2019-01-15T03:32:40.698Z,1.50
2019-01-15T03:35:09.170Z,1.30
2019-01-15T03:37:37.502Z,1.30
2019-01-15T03:40:08.339Z,2.20
2019-01-15T03:42:36.683Z,1.27
2019-01-15T03:45:06.241Z,1.67
2019-01-15T03:47:34.557Z,1.80
2019-01-15T03:50:03.312Z,2.02
2019-01-15T03:52:31.654Z,1.50
2019-01-15T03:55:00.003Z,1.40
2019-01-15T03:57:28.311Z,1.70
2019-01-15T03:59:56.657Z,1.95
2019-01-15T04:02:25.098Z,1.73
2019-01-15T04:04:53.442Z,1.50
2019-01-15T04:07:22.044Z,1.67
2019-01-15T04:09:50.362Z,1.70
2019-01-15T04:12:18.907Z,2.00
2019-01-15T04:14:47.213Z,1.30
2019-01-15T04:17:15.545Z,1.30
2019-01-15T04:19:43.936Z,1.80
2019-01-15T04:22:12.633Z,1.53
2019-01-15T04:24:40.989Z,1.60
2019-01-15T04:27:09.577Z,1.70
2019-01-15T04:29:37.925Z,1.70
2019-01-15T04:32:06.263Z,2.20
2019-01-15T04:34:34.598Z,1.60
2019-01-15T04:37:02.934Z,2.33
2019-01-15T04:39:31.270Z,2.00
2019-01-15T04:41:59.621Z,1.57
2019-01-15T04:44:27.990Z,1.80
2019-01-15T04:46:56.347Z,1.70
2019-01-15T04:49:24.677Z,1.42
2019-01-15T04:51:53.200Z,1.60
2019-01-15T04:54:21.532Z,2.03
2019-01-15T04:56:50.596Z,2.20
2019-01-15T04:59:19.086Z,1.53
2019-01-15T05:01:47.406Z,2.00
2019-01-15T05:04:15.739Z,1.90
2019-01-15T05:06:44.049Z,1.70
2019-01-15T05:09:13.717Z,1.83
2019-01-15T05:11:42.202Z,2.20
2019-01-15T05:14:10.855Z,2.30
2019-01-15T05:16:39.233Z,2.20
2019-01-15T05:19:07.589Z,1.80
2019-01-15T05:21:35.995Z,2.97
2019-01-15T05:24:04.483Z,1.90
2019-01-15T05:26:32.822Z,2.00
2019-01-15T05:29:01.205Z,2.37
2019-01-15T05:31:29.525Z,2.05
2019-01-15T05:33:57.888Z,1.90
2019-01-15T05:36:26.213Z,1.83
2019-01-15T05:38:54.891Z,1.87
2019-01-15T05:41:23.227Z,2.07
2019-01-15T05:43:51.567Z,2.30
2019-01-15T05:46:19.855Z,2.33
2019-01-15T05:48:48.198Z,1.70
2019-01-15T05:51:18.969Z,1.70
2019-01-15T05:53:47.324Z,2.52
2019-01-15T05:56:15.802Z,2.20
2019-01-15T05:58:44.170Z,2.00
2019-01-15T06:01:12.769Z,2.00
2019-01-15T06:03:41.129Z,1.73
2019-01-15T06:06:09.501Z,2.05
2019-01-15T06:08:37.837Z,2.30
2019-01-15T06:11:06.162Z,2.60
2019-01-15T06:13:34.845Z,2.23
2019-01-15T06:16:03.146Z,2.00
2019-01-15T06:18:31.476Z,2.10
2019-01-15T06:20:59.807Z,2.27
2019-01-15T06:23:28.147Z,1.87
2019-01-15T06:25:57.109Z,1.98
2019-01-15T06:28:25.989Z,2.00
2019-01-15T06:30:54.454Z,2.63
2019-01-15T06:33:22.826Z,2.17
2019-01-15T06:35:51.183Z,2.20
2019-01-15T06:38:19.514Z,1.93
2019-01-15T06:40:47.858Z,1.67
2019-01-15T06:43:16.197Z,2.13
2019-01-15T06:45:44.534Z,2.50
2019-01-15T06:48:13.198Z,2.30
2019-01-15T06:50:41.545Z,2.10
2019-01-15T06:53:10.212Z,2.40
2019-01-15T06:55:38.547Z,2.20
2019-01-15T06:58:07.063Z,1.67
2019-01-15T07:00:35.429Z,2.47
2019-01-15T07:03:04.384Z,1.87
2019-01-15T07:05:32.833Z,3.30
2019-01-15T07:08:01.273Z,2.10
2019-01-15T07:10:32.425Z,2.10
2019-01-15T07:13:00.746Z,2.23
2019-01-15T07:15:29.049Z,1.97
2019-01-15T07:17:57.408Z,2.67
2019-01-15T07:20:25.952Z,1.73
2019-01-15T07:22:54.383Z,2.15
2019-01-15T07:25:24.355Z,2.50
2019-01-15T07:27:52.777Z,2.30
2019-01-15T07:30:24.395Z,2.90
2019-01-15T07:32:52.781Z,3.27
2019-01-15T07:35:21.172Z,3.17
2019-01-15T07:37:49.680Z,3.20
2019-01-15T07:40:18.921Z,3.33
2019-01-15T07:42:47.248Z,2.70
2019-01-15T07:45:15.567Z,2.90
2019-01-15T07:47:43.948Z,3.90
2019-01-15T07:50:16.158Z,3.25
2019-01-15T07:52:44.806Z,2.80
2019-01-15T07:55:15.409Z,3.50
2019-01-15T07:57:43.805Z,2.92
2019-01-15T08:00:16.658Z,2.63
2019-01-15T08:02:45.151Z,3.57
2019-01-15T08:05:15.709Z,3.03
2019-01-15T08:07:44.045Z,3.57
2019-01-15T08:10:14.378Z,3.60
2019-01-15T08:12:42.839Z,4.50
2019-01-15T08:15:16.072Z,2.97
2019-01-15T08:17:44.452Z,8.93
2019-01-15T08:20:14.069Z,10.20
2019-01-15T08:22:42.545Z,5.77
2019-01-15T08:25:14.036Z,2.80
2019-01-15T08:27:42.426Z,3.50
2019-01-15T08:30:13.201Z,3.00
2019-01-15T08:32:41.538Z,3.07
2019-01-15T08:35:10.612Z,3.00
2019-01-15T08:37:39.028Z,2.70
2019-01-15T08:40:10.890Z,2.50
2019-01-15T08:42:39.338Z,2.70
2019-01-15T08:45:10.093Z,3.00
2019-01-15T08:47:40.462Z,3.00
2019-01-15T08:50:12.732Z,2.93
2019-01-15T08:52:41.071Z,2.90
2019-01-15T08:55:09.961Z,3.23
2019-01-15T08:57:38.361Z,3.53
2019-01-15T09:00:08.837Z,3.47
2019-01-15T09:02:37.259Z,3.03
2019-01-15T09:05:06.314Z,3.77
2019-01-15T09:07:34.782Z,3.93
2019-01-15T09:10:04.466Z,4.30
2019-01-15T09:12:32.792Z,3.43
2019-01-15T09:15:01.224Z,3.67
2019-01-15T09:17:29.549Z,3.80
2019-01-15T09:19:57.885Z,3.50
2019-01-15T09:22:26.215Z,3.50
2019-01-15T09:24:54.628Z,4.00
2019-01-15T09:27:22.950Z,4.53
2019-01-15T09:29:51.289Z,5.23
2019-01-15T09:32:19.698Z,3.83
2019-01-15T09:34:48.057Z,3.90
2019-01-15T09:37:16.561Z,3.50
2019-01-15T09:39:44.975Z,4.00
2019-01-15T09:42:13.477Z,4.12
2019-01-15T09:44:42.002Z,3.70
2019-01-15T09:47:10.324Z,3.95
2019-01-15T09:49:38.657Z,3.30
2019-01-15T09:52:13.156Z,3.80
2019-01-15T09:54:37.817Z,5.70
2019-01-15T09:57:06.606Z,5.03
2019-01-15T09:59:35.118Z,4.77
2019-01-15T10:02:03.738Z,4.42
2019-01-15T10:04:32.061Z,4.45
2019-01-15T10:07:00.437Z,4.10
2019-01-15T10:09:28.772Z,5.20
2019-01-15T10:11:57.141Z,5.00
2019-01-15T10:14:25.476Z,4.23
2019-01-15T10:16:53.857Z,4.70
2019-01-15T10:19:22.226Z,5.80
2019-01-15T10:21:50.743Z,4.30
2019-01-15T10:24:19.093Z,5.40
2019-01-15T10:26:47.463Z,4.60
2019-01-15T10:29:15.850Z,4.67
2019-01-15T10:31:52.530Z,4.37
2019-01-15T10:34:22.857Z,4.00
2019-01-15T10:36:50.769Z,3.93
2019-01-15T10:39:19.143Z,4.07
2019-01-15T10:41:47.501Z,4.60
2019-01-15T10:44:15.808Z,3.80
2019-01-15T10:46:44.221Z,3.55
2019-01-15T10:49:12.549Z,4.60
2019-01-15T10:51:40.888Z,4.43
2019-01-15T10:54:09.343Z,3.60
2019-01-15T10:56:37.703Z,5.03
2019-01-15T10:59:32.739Z,4.47
2019-01-15T11:02:01.099Z,4.83
2019-01-15T11:04:29.416Z,4.07
2019-01-15T11:06:57.773Z,4.40
2019-01-15T11:09:26.221Z,4.17
2019-01-15T11:11:54.534Z,4.97
2019-01-15T11:14:23.257Z,5.00
2019-01-15T11:16:51.609Z,5.03
2019-01-15T11:19:20.059Z,4.30
2019-01-15T11:21:48.486Z,5.10
2019-01-15T11:24:16.788Z,4.60
2019-01-15T11:26:45.154Z,5.00
2019-01-15T11:29:13.523Z,4.77
2019-01-15T11:31:41.867Z,6.00
2019-01-15T11:34:10.339Z,5.33
2019-01-15T11:36:38.709Z,5.87
2019-01-15T11:39:08.028Z,5.00
2019-01-15T11:41:36.399Z,5.23
2019-01-15T11:44:04.810Z,5.17
2019-01-15T11:46:33.295Z,4.60
2019-01-15T11:49:01.829Z,4.90
2019-01-15T11:51:30.205Z,5.53
2019-01-15T11:53:58.604Z,4.65
2019-01-15T11:56:26.920Z,4.28
2019-01-15T11:58:55.630Z,4.37
2019-01-15T12:01:26.025Z,4.33
2019-01-15T12:03:57.121Z,3.87
2019-01-15T12:06:27.406Z,4.60
2019-01-15T12:08:59.508Z,4.47
2019-01-15T12:11:31.667Z,3.77
2019-01-15T12:14:03.637Z,4.85
2019-01-15T12:16:34.737Z,4.80
2019-01-15T12:19:05.715Z,4.77
2019-01-15T12:21:36.793Z,4.43
2019-01-15T12:24:08.356Z,4.60
2019-01-15T12:26:39.090Z,5.12
2019-01-15T12:29:10.194Z,4.27
2019-01-15T12:31:41.289Z,4.53
2019-01-15T12:34:13.348Z,4.60
2019-01-15T12:36:44.205Z,4.30
2019-01-15T12:39:15.308Z,4.77
2019-01-15T12:41:47.341Z,4.77
2019-01-15T12:44:18.293Z,4.80
2019-01-15T12:46:48.667Z,4.57
2019-01-15T12:49:20.700Z,6.00
2019-01-15T12:51:51.707Z,5.97
2019-01-15T12:54:22.179Z,6.00
2019-01-15T12:56:53.272Z,7.80
2019-01-15T12:59:24.024Z,7.43
2019-01-15T13:01:55.064Z,4.97
2019-01-15T13:04:26.196Z,4.93
2019-01-15T13:06:57.146Z,4.73
2019-01-15T13:09:28.118Z,5.43
2019-01-15T13:11:58.282Z,5.23
2019-01-15T13:14:27.932Z,4.40
2019-01-15T13:16:59.928Z,4.23
2019-01-15T13:19:30.883Z,4.70
2019-01-15T13:22:00.568Z,4.80
2019-01-15T13:24:31.173Z,4.30
2019-01-15T13:27:01.656Z,4.30
2019-01-15T13:29:32.715Z,4.70
2019-01-15T13:32:03.089Z,4.57
2019-01-15T13:34:34.395Z,4.00
2019-01-15T13:37:05.421Z,5.10
2019-01-15T13:39:36.550Z,5.50
2019-01-15T13:42:08.700Z,4.10
2019-01-15T13:44:39.813Z,4.13
2019-01-15T13:47:11.235Z,3.83
2019-01-15T13:49:42.278Z,4.70
2019-01-15T13:52:14.257Z,3.37
2019-01-15T13:54:45.283Z,4.70
2019-01-15T13:57:15.469Z,4.00
2019-01-15T13:59:46.412Z,3.80
2019-01-15T14:02:15.686Z,3.60
2019-01-15T14:04:46.653Z,3.87
2019-01-15T14:07:17.758Z,3.70
2019-01-15T14:09:48.150Z,4.15
2019-01-15T14:12:19.392Z,4.60
2019-01-15T14:14:49.938Z,4.10
2019-01-15T14:17:22.126Z,4.17
2019-01-15T14:19:54.097Z,5.23
2019-01-15T14:22:23.774Z,4.40
2019-01-15T14:24:58.531Z,5.10
2019-01-15T14:27:26.112Z,4.03
2019-01-15T14:29:57.111Z,4.50
2019-01-15T14:32:25.534Z,4.67
2019-01-15T14:34:55.652Z,4.47
2019-01-15T14:37:26.023Z,4.47
2019-01-15T14:39:56.313Z,3.97
2019-01-15T14:42:27.516Z,4.00
2019-01-15T14:44:57.797Z,5.33
2019-01-15T14:47:28.753Z,4.40
2019-01-15T14:49:59.683Z,4.72
2019-01-15T14:52:30.702Z,4.73
2019-01-15T14:55:00.851Z,4.20
2019-01-15T14:57:31.857Z,4.93
2019-01-15T15:00:03.823Z,4.23
2019-01-15T15:02:34.824Z,4.87
2019-01-15T15:05:08.085Z,4.13
2019-01-15T15:07:39.294Z,3.90
2019-01-15T15:10:12.608Z,3.80
2019-01-15T15:12:44.840Z,3.77
2019-01-15T15:15:15.251Z,3.90
2019-01-15T15:17:47.852Z,4.03
2019-01-15T15:20:20.248Z,3.60
2019-01-15T15:22:51.302Z,3.90
2019-01-15T15:25:22.053Z,3.93
2019-01-15T15:27:53.215Z,4.03
2019-01-15T15:30:25.345Z,4.30
2019-01-15T15:32:56.444Z,3.30
2019-01-15T15:35:28.403Z,3.90
2019-01-15T15:37:58.976Z,3.90
2019-01-15T15:40:31.097Z,3.20
2019-01-15T15:43:01.192Z,4.00
2019-01-15T15:45:31.581Z,3.90
2019-01-15T15:48:03.686Z,4.03
2019-01-15T15:50:34.043Z,4.03
2019-01-15T15:53:04.738Z,3.90
2019-01-15T15:55:35.921Z,4.10
2019-01-15T15:58:06.661Z,3.63
2019-01-15T16:00:35.300Z,3.83
2019-01-15T16:03:06.552Z,3.80
2019-01-15T16:05:37.538Z,3.58
2019-01-15T16:08:08.398Z,3.57
2019-01-15T16:10:39.403Z,3.47
2019-01-15T16:13:10.378Z,3.40
2019-01-15T16:15:40.203Z,3.50
2019-01-15T16:18:12.206Z,3.50
2019-01-15T16:20:42.527Z,3.03
2019-01-15T16:23:14.521Z,3.33
2019-01-15T16:25:44.914Z,4.40
2019-01-15T16:28:16.797Z,4.87
2019-01-15T16:30:47.793Z,4.07
2019-01-15T16:33:19.790Z,5.00
2019-01-15T16:35:50.554Z,3.73
2019-01-15T16:38:23.637Z,4.65
2019-01-15T16:40:54.753Z,3.60
2019-01-15T16:43:24.759Z,3.70
2019-01-15T16:45:53.915Z,3.73
2019-01-15T16:48:25.019Z,4.17
2019-01-15T16:50:54.108Z,3.93
2019-01-15T16:53:26.204Z,3.60
2019-01-15T16:55:58.175Z,4.30
2019-01-15T16:58:27.836Z,3.37
2019-01-15T17:00:59.930Z,3.50
2019-01-15T17:03:31.050Z,3.97
2019-01-15T17:06:01.945Z,3.67
2019-01-15T17:08:33.164Z,3.90
2019-01-15T17:11:05.336Z,3.77
2019-01-15T17:13:36.066Z,3.70
2019-01-15T17:16:07.022Z,3.40
2019-01-15T17:18:41.802Z,4.53
2019-01-15T17:21:13.903Z,4.57
2019-01-15T17:23:44.637Z,3.80
2019-01-15T17:26:16.855Z,3.70
2019-01-15T17:28:46.124Z,3.30
2019-01-15T17:31:17.440Z,4.50
2019-01-15T17:33:52.119Z,3.90
2019-01-15T17:36:22.259Z,3.60
2019-01-15T17:38:53.251Z,4.70
2019-01-15T17:41:22.022Z,3.87
2019-01-15T17:43:53.950Z,3.77
2019-01-15T17:46:27.834Z,3.90
2019-01-15T17:48:58.853Z,3.37
2019-01-15T17:51:29.839Z,3.50
2019-01-15T17:54:00.809Z,4.00
2019-01-15T17:56:31.572Z,3.70
2019-01-15T17:59:02.533Z,4.20
2019-01-15T18:01:33.171Z,3.90
2019-01-15T18:04:04.184Z,4.27
2019-01-15T18:06:36.160Z,4.00
2019-01-15T18:09:09.586Z,3.57
2019-01-15T18:11:39.146Z,4.10
2019-01-15T18:14:11.249Z,4.00
2019-01-15T18:16:48.390Z,4.00
2019-01-15T18:19:16.154Z,3.50
2019-01-15T18:21:49.274Z,3.87
2019-01-15T18:24:20.373Z,4.30
2019-01-15T18:26:50.029Z,4.10
2019-01-15T18:29:20.186Z,4.58
2019-01-15T18:31:51.152Z,3.53
2019-01-15T18:34:24.022Z,3.58
2019-01-15T18:36:53.119Z,4.10
2019-01-15T18:39:21.876Z,3.57
2019-01-15T18:41:53.625Z,3.50
2019-01-15T18:44:23.410Z,4.30
2019-01-15T18:46:55.956Z,3.70
2019-01-15T18:49:27.632Z,3.50
2019-01-15T18:51:58.993Z,4.10
2019-01-15T18:54:29.570Z,3.57
2019-01-15T18:57:00.836Z,3.80
2019-01-15T18:59:31.873Z,4.10
2019-01-15T19:02:02.612Z,4.00
2019-01-15T19:04:33.293Z,3.83
2019-01-15T19:07:01.905Z,4.10
2019-01-15T19:09:33.029Z,3.73
2019-01-15T19:12:03.440Z,4.37
2019-01-15T19:14:34.547Z,3.58
2019-01-15T19:17:06.711Z,3.73
2019-01-15T19:19:37.420Z,3.70
2019-01-15T19:22:10.363Z,3.90
2019-01-15T19:24:42.321Z,4.20
2019-01-15T19:27:12.817Z,3.40
2019-01-15T19:29:42.212Z,3.67
2019-01-15T19:32:12.883Z,3.70
2019-01-15T19:34:43.712Z,3.60
2019-01-15T19:37:16.218Z,5.27
2019-01-15T19:39:48.358Z,4.95
2019-01-15T19:42:19.462Z,4.00
2019-01-15T19:44:49.154Z,3.40
2019-01-15T19:47:21.232Z,3.67
2019-01-15T19:49:55.218Z,3.47
2019-01-15T19:52:25.826Z,3.63
2019-01-15T19:54:56.783Z,3.27
2019-01-15T19:57:27.741Z,3.80
2019-01-15T19:59:58.093Z,4.33
2019-01-15T20:02:28.161Z,4.15
2019-01-15T20:05:00.256Z,4.90
2019-01-15T20:07:31.075Z,3.83
2019-01-15T20:10:04.149Z,3.40
2019-01-15T20:12:33.892Z,3.63
2019-01-15T20:15:05.106Z,3.60
2019-01-15T20:17:37.093Z,3.70
2019-01-15T20:20:13.106Z,4.07
2019-01-15T20:22:44.026Z,3.27
2019-01-15T20:25:15.168Z,3.60
2019-01-15T20:27:47.125Z,3.60
2019-01-15T20:30:18.493Z,3.67
2019-01-15T20:32:49.775Z,3.50
2019-01-15T20:35:21.754Z,3.30
2019-01-15T20:37:51.840Z,3.17
2019-01-15T20:40:23.956Z,3.10
2019-01-15T20:42:53.570Z,3.40
2019-01-15T20:45:25.593Z,3.20
2019-01-15T20:47:56.148Z,3.13
2019-01-15T20:50:26.557Z,3.40
2019-01-15T20:52:58.648Z,3.57
2019-01-15T20:55:29.807Z,3.17
2019-01-15T20:58:00.432Z,2.70
2019-01-15T21:00:30.821Z,2.60
2019-01-15T21:03:00.406Z,3.07
2019-01-15T21:05:32.471Z,2.67
2019-01-15T21:08:04.061Z,2.73
2019-01-15T21:10:36.130Z,2.62
2019-01-15T21:13:12.027Z,2.50
2019-01-15T21:15:42.447Z,2.67
2019-01-15T21:18:15.474Z,2.57
2019-01-15T21:20:46.750Z,2.72
2019-01-15T21:23:18.839Z,2.63
2019-01-15T21:25:51.991Z,2.50
2019-01-15T21:28:24.071Z,2.40
2019-01-15T21:30:55.040Z,2.40
2019-01-15T21:33:25.431Z,2.50
2019-01-15T21:35:56.593Z,2.53
2019-01-15T21:38:27.775Z,2.57
2019-01-15T21:40:58.121Z,2.70
2019-01-15T21:43:30.074Z,3.60
2019-01-15T21:46:00.706Z,3.00
2019-01-15T21:48:32.669Z,3.13
2019-01-15T21:51:04.747Z,2.72
2019-01-15T21:53:36.742Z,2.90
2019-01-15T21:56:07.333Z,3.63
2019-01-15T21:58:36.051Z,2.50
2019-01-15T22:01:07.633Z,3.63
2019-01-15T22:03:38.208Z,3.40
2019-01-15T22:06:07.882Z,2.80
2019-01-15T22:08:38.648Z,3.22
2019-01-15T22:11:09.636Z,2.72
2019-01-15T22:13:39.498Z,3.20
2019-01-15T22:16:09.720Z,3.37
2019-01-15T22:18:41.633Z,2.77
2019-01-15T22:21:12.450Z,2.93
2019-01-15T22:23:44.519Z,2.90
2019-01-15T22:26:13.534Z,3.30
2019-01-15T22:28:43.933Z,2.80
2019-01-15T22:31:17.185Z,2.93
2019-01-15T22:33:51.440Z,3.10
2019-01-15T22:36:20.430Z,3.13
2019-01-15T22:38:51.589Z,3.20
2019-01-15T22:41:22.939Z,3.50
2019-01-15T22:43:55.051Z,2.90
2019-01-15T22:46:25.757Z,2.95
2019-01-15T22:48:56.387Z,2.65
2019-01-15T22:51:28.354Z,3.35
2019-01-15T22:54:01.121Z,2.70
2019-01-15T22:56:31.411Z,3.30
2019-01-15T23:02:00.676Z,2.90
2019-01-15T23:04:33.700Z,3.50
2019-01-15T23:07:11.029Z,2.80
2019-01-15T23:09:42.687Z,3.40
2019-01-15T23:12:14.036Z,2.90
2019-01-15T23:14:45.519Z,2.63
2019-01-15T23:17:17.705Z,2.80
2019-01-15T23:19:48.880Z,3.03
2019-01-15T23:22:19.960Z,2.63
2019-01-15T23:24:51.913Z,2.80
2019-01-15T23:27:23.982Z,2.77
2019-01-15T23:29:54.818Z,5.63
2019-01-15T23:32:25.942Z,3.20
2019-01-15T23:34:56.926Z,3.43
2019-01-15T23:37:27.911Z,3.40
2019-01-15T23:39:59.894Z,3.13
2019-01-15T23:42:30.505Z,3.50
2019-01-15T23:45:02.482Z,3.23
2019-01-15T23:47:34.586Z,3.30
2019-01-15T23:50:07.034Z,3.20
2019-01-15T23:52:37.330Z,3.40
2019-01-15T23:55:10.080Z,3.17
2019-01-15T23:57:41.208Z,3.00
